Impacts TAF Board INFO
FOR SITUATIONAL AWARENESS. NOT TO BE USED FOR FLIGHT PLANNING PURPOSES.
IDs:

KJFK - New York/Kennedy Int, NY, US

Issued at 1445 UTC 25 Feb 2018
Updated at 1720 UTC 25 Feb 2018
Potential Impact None Slight Moderate High
Time1651Z 25/18Z 25/19Z 25/20Z 25/21Z 25/22Z 25/23Z 26/00Z 26/01Z 26/02Z 26/03Z 26/04Z 26/05Z 26/06Z>>
Type OBS PRVL PRVL PRVL PRVL PRVL PRVL PRVL PRVL PRVL PRVL PRVL PRVL PRVL
VIS 4 1.5 1.5 1.5 1.5 1 1 1 1 1 1 4 4 4
CIG 8 6 6 9 9 60 60 60 60 60 60 90 90 90
Cover OVC OVC OVC OVC OVC OVC OVC OVC OVC OVC OVC OVC OVC OVC
FltCat IFR IFR IFR IFR IFR IFR IFR IFR IFR IFR IFR MVFR MVFR MVFR
WX -RA BR -RA BR -RA BR BR VCSH BR VCSH BR BR BR BR BR BR BR BR BR
WDir 40 80 80 30 30 VRB VRB VRB VRB VRB VRB VRB VRB VRB
WSpd 10 8 8 5 5 3 3 3 3 3 3 0 0 0
WGst -- -- -- -- -- -- -- -- -- -- -- -- -- --

Raw TAF
KJFK 251445Z 2515/2618 08014G25KT 3SM RA BR OVC008
  FM251700 08011G20KT 1 1/2SM -RA BR OVC005
  FM251800 08008KT 1 1/2SM -RA BR OVC006
  FM252000 03005KT 1 1/2SM BR VCSH OVC009
  FM252200 VRB03KT 1SM BR OVC060
  FM260400 00000KT 4SM BR OVC090
  FM260700 30005KT P6SM BKN150
  FM261200 33007KT P6SM BKN200
  FM261700 29009KT P6SM FEW250


Raw METAR
KJFK 251651Z 04010KT 4SM -RA BR OVC008 07/06 A3000 RMK AO2 SLP160 P0017 T00670061
KJFK 251551Z 08014KT 3SM +RA BR OVC008 06/06 A3001 RMK AO2 PK WND 07026/1503 SLP163 P0022 T00610056
KJFK 251531Z 07018G23KT 5SM -RA BR OVC008 06/05 A3002 RMK AO2 PK WND 07026/1503 P0018 T00610050
KJFK 251451Z 08019G27KT 4SM RA BR BKN010 OVC014 06/05 A3003 RMK AO2 PK WND 09027/1442 VIS 2 1/2 W SLP167 P0008 60030 T00560050 58033

METAR Board
Radar Display
Forecast Discussion

FOR SITUATIONAL AWARENESS. NOT TO BE USED FOR FLIGHT PLANNING PURPOSES.